createdAt,value
2023-01-12T00:01:06.935Z,26.50
2023-01-12T00:03:34.188Z,34.60
2023-01-12T00:06:07.205Z,26.10
2023-01-12T00:08:37.702Z,26.60
2023-01-12T00:11:04.851Z,25.70
2023-01-12T00:13:32.904Z,22.40
2023-01-12T00:16:20.385Z,31.20
2023-01-12T00:18:47.985Z,20.50
2023-01-12T00:21:15.409Z,29.50
2023-01-12T00:23:44.775Z,30.40
2023-01-12T00:26:15.963Z,20.60
2023-01-12T00:28:42.908Z,35.10
2023-01-12T00:31:10.958Z,19.80
2023-01-12T00:33:38.955Z,23.60
2023-01-12T00:36:15.302Z,20.70
2023-01-12T00:38:42.855Z,27.30
2023-01-12T00:41:33.395Z,19.40
2023-01-12T00:44:18.976Z,14.50
2023-01-12T00:46:46.595Z,19.10
2023-01-12T00:49:28.411Z,20.90
2023-01-12T00:51:56.805Z,27.30
2023-01-12T00:54:27.441Z,22.50
2023-01-12T00:56:55.513Z,22.60
2023-01-12T00:59:25.895Z,19.20
2023-01-12T01:01:55.347Z,24.10
2023-01-12T01:04:22.799Z,35.10
2023-01-12T01:06:54.048Z,20.00
2023-01-12T01:09:22.328Z,22.60
2023-01-12T01:11:50.977Z,26.70
2023-01-12T01:14:20.507Z,31.10
2023-01-12T01:16:48.369Z,31.80
2023-01-12T01:19:16.157Z,37.50
2023-01-12T01:21:44.368Z,31.80
2023-01-12T01:24:12.369Z,23.70
2023-01-12T01:26:41.027Z,30.90
2023-01-12T01:29:08.944Z,20.10
2023-01-12T01:31:38.439Z,29.80
2023-01-12T01:34:06.738Z,34.70
2023-01-12T01:36:37.046Z,31.90
2023-01-12T01:39:05.276Z,27.80
2023-01-12T01:41:34.190Z,21.40
2023-01-12T01:44:29.303Z,17.40
2023-01-12T01:46:56.861Z,17.10
2023-01-12T01:49:39.134Z,19.60
2023-01-12T01:52:20.818Z,13.90
2023-01-12T04:04:45.900Z,19.80
2023-01-12T04:07:15.833Z,21.00
2023-01-12T04:09:44.084Z,24.30
2023-01-12T04:12:11.896Z,20.00
2023-01-12T04:14:47.642Z,19.90
2023-01-12T04:17:15.663Z,23.90
2023-01-12T04:19:43.500Z,28.70
2023-01-12T04:22:32.521Z,19.70
2023-01-12T04:25:01.881Z,17.30
2023-01-12T04:27:31.866Z,19.40
2023-01-12T04:29:59.294Z,20.90
2023-01-12T04:32:26.885Z,16.90
2023-01-12T04:34:55.529Z,17.30
2023-01-12T04:37:23.610Z,18.10
2023-01-12T04:39:53.554Z,21.00
2023-01-12T04:42:39.600Z,20.60
2023-01-12T04:45:10.961Z,22.10
2023-01-12T04:47:38.827Z,18.70
2023-01-12T04:50:07.987Z,21.20
2023-01-12T04:52:39.368Z,24.00
2023-01-12T04:55:07.084Z,22.00
2023-01-12T04:57:37.331Z,20.20
2023-01-12T05:00:08.054Z,23.40
2023-01-12T05:02:35.885Z,22.10
2023-01-12T05:05:05.008Z,17.30
2023-01-12T05:07:33.847Z,22.30
2023-01-12T05:10:23.060Z,19.80
2023-01-12T05:12:51.222Z,23.90
2023-01-12T05:15:24.329Z,19.60
2023-01-12T05:17:54.343Z,20.30
2023-01-12T05:20:22.789Z,17.90
2023-01-12T05:22:52.444Z,23.80
2023-01-12T05:25:30.676Z,22.30
2023-01-12T05:28:04.011Z,17.40
2023-01-12T05:30:37.735Z,35.00
2023-01-12T05:33:07.222Z,14.70
2023-01-12T05:35:39.714Z,18.60
2023-01-12T05:38:09.632Z,15.70
2023-01-12T05:40:38.416Z,19.80
2023-01-12T05:43:29.530Z,23.40
2023-01-12T05:45:59.508Z,27.90
2023-01-12T05:48:32.493Z,34.10
2023-01-12T05:53:33.607Z,39.90
2023-01-12T05:56:26.095Z,31.10
2023-01-12T05:58:58.452Z,46.80
2023-01-12T06:01:31.767Z,45.50
2023-01-12T06:06:31.768Z,51.80
2023-01-12T06:09:05.895Z,42.20
2023-01-12T06:11:54.557Z,33.70
2023-01-12T06:14:27.752Z,38.00
2023-01-12T06:16:54.977Z,30.70
2023-01-12T06:19:23.795Z,33.00
2023-01-12T06:21:52.675Z,23.10
2023-01-12T06:24:22.690Z,34.90
2023-01-12T06:26:51.882Z,30.40
2023-01-12T06:29:19.773Z,31.20
2023-01-12T06:31:49.626Z,32.40
2023-01-12T06:34:17.929Z,31.90
2023-01-12T06:36:45.639Z,32.60
2023-01-12T06:39:14.931Z,27.60
2023-01-12T06:42:01.499Z,30.20
2023-01-12T06:44:29.549Z,33.80
2023-01-12T06:46:58.230Z,45.60
2023-01-12T06:49:27.365Z,30.80
2023-01-12T06:51:56.806Z,40.00
2023-01-12T06:54:24.398Z,46.30
2023-01-12T06:56:51.720Z,33.40
2023-01-12T06:59:19.075Z,26.60
2023-01-12T07:01:47.083Z,38.60
2023-01-12T07:04:15.251Z,31.00
2023-01-12T07:06:47.741Z,28.30
2023-01-12T07:09:14.756Z,28.10
2023-01-12T07:11:46.114Z,34.40
2023-01-12T07:14:17.397Z,25.60
2023-01-12T07:16:49.203Z,34.40
2023-01-12T07:19:20.219Z,26.20
2023-01-12T07:21:50.354Z,27.70
2023-01-12T07:24:18.004Z,28.80
2023-01-12T07:26:48.588Z,30.70
2023-01-12T07:29:36.708Z,25.00
2023-01-12T07:32:06.834Z,26.00
2023-01-12T07:34:39.812Z,31.50
2023-01-12T07:37:07.532Z,21.20
2023-01-12T07:39:39.417Z,21.00
2023-01-12T07:44:53.470Z,20.20
2023-01-12T07:47:20.541Z,19.40
2023-01-12T07:49:49.198Z,23.40
2023-01-12T07:52:16.479Z,21.30
2023-01-12T07:54:44.693Z,23.20
2023-01-12T07:57:13.209Z,19.10
2023-01-12T07:59:41.674Z,16.30
2023-01-12T08:02:18.970Z,29.60
2023-01-12T08:04:46.800Z,24.40
2023-01-12T08:07:20.508Z,20.10
2023-01-12T08:09:48.512Z,20.10
2023-01-12T08:12:21.681Z,17.70
2023-01-12T08:14:54.966Z,24.70
2023-01-12T08:17:28.707Z,16.60
2023-01-12T08:20:11.714Z,14.90
2023-01-12T08:23:12.759Z,12.00
2023-01-12T08:26:35.363Z,16.80
2023-01-12T08:29:51.534Z,17.80
2023-01-12T08:32:23.384Z,16.40
2023-01-12T08:34:55.783Z,14.00
2023-01-12T08:37:25.123Z,14.60
2023-01-12T08:39:53.289Z,15.40
2023-01-12T08:42:28.743Z,10.90
2023-01-12T08:45:20.542Z,21.20
2023-01-12T08:47:47.988Z,19.90
2023-01-12T08:50:16.765Z,15.00
2023-01-12T08:52:46.886Z,20.60
2023-01-12T08:55:17.356Z,17.10
2023-01-12T08:57:46.483Z,16.10
2023-01-12T09:00:21.127Z,28.90
2023-01-12T09:02:50.183Z,21.70
2023-01-12T09:05:19.373Z,19.30
2023-01-12T09:07:48.739Z,21.80
2023-01-12T09:10:20.272Z,22.20
2023-01-12T09:13:02.160Z,19.70
2023-01-12T09:15:35.464Z,26.50
2023-01-12T09:18:05.040Z,22.50
2023-01-12T09:20:39.546Z,19.70
2023-01-12T09:23:10.381Z,24.40
2023-01-12T09:25:41.066Z,32.60
2023-01-12T09:28:11.570Z,24.90
2023-01-12T09:30:43.205Z,17.00
2023-01-12T09:33:11.841Z,30.70
2023-01-12T09:35:46.450Z,26.00
2023-01-12T09:38:14.161Z,22.70
2023-01-12T09:40:44.383Z,18.70
2023-01-12T09:43:31.849Z,29.10
2023-01-12T09:46:17.454Z,20.30
2023-01-12T09:48:47.964Z,20.50
2023-01-12T09:51:50.104Z,22.10
2023-01-12T09:54:20.109Z,18.70
2023-01-12T09:57:28.325Z,34.30
2023-01-12T10:00:06.453Z,18.90
2023-01-12T10:02:47.280Z,17.30
2023-01-12T10:05:40.176Z,24.50
2023-01-12T10:08:15.998Z,22.80
2023-01-12T10:10:48.582Z,25.40
2023-01-12T10:13:18.669Z,22.80
2023-01-12T10:15:55.276Z,26.50
2023-01-12T10:18:31.688Z,17.30
2023-01-12T10:20:58.997Z,23.80
2023-01-12T10:23:29.219Z,23.40
2023-01-12T10:26:27.148Z,44.10
2023-01-12T10:28:56.332Z,32.20
2023-01-12T10:31:25.112Z,37.80
2023-01-12T14:13:36.741Z,54.80
2023-01-12T14:16:36.611Z,66.60
2023-01-12T14:19:34.738Z,81.10
2023-01-12T14:22:05.679Z,97.70
2023-01-12T14:25:22.523Z,69.30
2023-01-12T14:28:23.935Z,59.00
2023-01-12T14:31:05.637Z,83.90
2023-01-12T14:33:41.934Z,79.00
2023-01-12T14:36:20.510Z,64.80
2023-01-12T14:38:52.895Z,83.80
2023-01-12T14:41:49.030Z,59.20
2023-01-12T14:44:43.684Z,51.20
2023-01-12T14:47:27.747Z,63.10
2023-01-12T14:50:02.989Z,71.50
2023-01-12T14:52:37.297Z,64.50
2023-01-12T14:55:28.553Z,49.10
2023-01-12T14:57:59.263Z,70.90
2023-01-12T15:02:59.821Z,74.20
2023-01-12T15:05:29.530Z,74.40
2023-01-12T15:08:09.740Z,105.80
2023-01-12T15:10:42.689Z,69.50
2023-01-12T15:13:35.921Z,76.90
2023-01-12T15:16:28.269Z,69.70
2023-01-12T15:22:11.578Z,74.50
2023-01-12T15:25:11.025Z,87.00
2023-01-12T15:27:46.653Z,72.90
2023-01-12T15:33:10.663Z,62.90
2023-01-12T15:35:51.154Z,62.20
2023-01-12T15:38:30.131Z,73.50
2023-01-12T15:41:02.448Z,53.70
2023-01-12T15:43:34.999Z,47.10
2023-01-12T15:46:04.763Z,69.60
2023-01-12T15:48:35.309Z,66.10
2023-01-12T15:51:04.325Z,64.60
2023-01-12T15:53:34.147Z,61.70
2023-01-12T15:56:04.155Z,49.30
2023-01-12T15:58:32.946Z,43.50
2023-01-12T16:01:12.368Z,45.50
2023-01-12T16:04:24.900Z,68.80
2023-01-12T16:06:34.632Z,83.60
2023-01-12T16:09:02.231Z,54.20
2023-01-12T16:11:33.883Z,55.00
2023-01-12T16:14:18.431Z,68.70
2023-01-12T16:16:50.769Z,62.10
2023-01-12T16:19:20.745Z,57.20
2023-01-12T16:21:54.232Z,61.10
2023-01-12T16:24:26.112Z,68.30
2023-01-12T16:26:53.408Z,37.90
2023-01-12T16:29:26.097Z,48.60
2023-01-12T16:32:00.408Z,61.60
2023-01-12T16:34:38.718Z,62.60
2023-01-12T16:37:06.069Z,49.90
2023-01-12T16:39:35.912Z,54.00
2023-01-12T16:42:04.578Z,64.40
2023-01-12T16:44:32.575Z,58.60
2023-01-12T16:47:01.122Z,63.30
2023-01-12T16:49:29.880Z,67.90
2023-01-12T16:52:04.913Z,44.20
2023-01-12T16:54:45.016Z,75.60
2023-01-12T16:57:16.932Z,59.30
2023-01-12T16:59:50.484Z,67.90
2023-01-12T17:02:21.834Z,69.10
2023-01-12T17:04:51.588Z,60.10
2023-01-12T17:07:22.522Z,60.20
2023-01-12T17:09:51.348Z,53.90
2023-01-12T17:12:28.752Z,75.70
2023-01-12T17:15:11.871Z,62.30
2023-01-12T17:17:40.243Z,71.60
2023-01-12T17:20:21.018Z,56.80
2023-01-12T17:22:49.632Z,77.90
2023-01-12T17:25:21.487Z,66.60
2023-01-12T17:27:50.141Z,63.00
2023-01-12T17:30:22.967Z,53.70
2023-01-12T17:32:53.237Z,63.10
2023-01-12T17:35:20.903Z,65.20
2023-01-12T17:37:48.218Z,60.10
2023-01-12T17:40:21.885Z,75.90
2023-01-12T17:43:07.863Z,71.70
2023-01-12T17:45:42.942Z,72.30
2023-01-12T17:48:11.516Z,79.30
2023-01-12T17:50:40.526Z,84.00
2023-01-12T22:13:31.455Z,69.70
2023-01-12T22:16:06.802Z,85.90
2023-01-12T22:18:35.100Z,82.80
2023-01-12T22:21:03.986Z,59.20
2023-01-12T22:23:32.826Z,84.50
2023-01-12T22:26:11.591Z,84.90
2023-01-12T22:28:41.639Z,84.00
2023-01-12T22:31:14.509Z,74.00
2023-01-12T22:33:49.740Z,84.40
2023-01-12T22:36:20.320Z,67.30
2023-01-12T22:38:50.528Z,64.40
2023-01-12T22:41:21.317Z,72.40
2023-01-12T22:43:48.931Z,71.60
2023-01-12T22:46:48.698Z,83.10
2023-01-12T22:52:41.760Z,74.50
2023-01-12T22:58:08.773Z,63.80
2023-01-12T23:00:39.420Z,70.20
2023-01-12T23:03:09.990Z,59.00
2023-01-12T23:05:57.141Z,68.80
2023-01-12T23:08:26.442Z,45.10
2023-01-12T23:11:08.158Z,71.70
2023-01-12T23:13:40.401Z,61.40
2023-01-12T23:16:08.845Z,66.20
2023-01-12T23:18:39.524Z,70.10
2023-01-12T23:21:15.936Z,68.60
2023-01-12T23:23:46.180Z,72.80
2023-01-12T23:28:55.426Z,57.60
2023-01-12T23:31:28.083Z,44.10
2023-01-12T23:33:56.958Z,52.00
2023-01-12T23:36:29.677Z,40.60
2023-01-12T23:39:03.785Z,57.20
2023-01-12T23:41:33.382Z,56.80
2023-01-12T23:44:05.204Z,76.70
2023-01-12T23:46:39.930Z,44.70
2023-01-12T23:49:07.545Z,62.10
2023-01-12T23:51:38.398Z,81.60
2023-01-12T23:54:14.341Z,58.50
2023-01-12T23:56:44.600Z,66.80
2023-01-12T23:59:13.393Z,53.10
